Time;durP1;ratioP1;P1;durP2;ratioP2;P2;SDS_P1;SDS_P2;PMS_P1;PMS_P2;Temp;Humidity;BMP_temperature;BMP_pressure;BME280_temperature;BME280_humidity;BME280_pressure;Samples;Min_cycle;Max_cycle;Signal;HPM_P1;HPM_P2
2022/06/04 00:00:18;;;;;;;;;;;11.80;99.90;;;;;;6274539;22;20005;-78
2022/06/04 00:02:44;;;;;;;;;;;11.80;99.90;;;;;;6275279;22;19919;-78
2022/06/04 00:05:10;;;;;;;;;;;11.70;99.90;;;;;;6249539;22;19911;-78
2022/06/04 00:07:36;;;;;;;;;;;11.70;99.90;;;;;;6274820;22;19969;-78
2022/06/04 00:15:46;;;;;;;;;;;11.60;99.90;;;;;;6275456;22;20398;-78
2022/06/04 00:18:12;;;;;;;;;;;11.60;99.90;;;;;;6274709;22;19989;-78
2022/06/04 00:20:38;;;;;;;;;;;11.60;99.90;;;;;;6274815;22;20344;-78
2022/06/04 00:23:04;;;;;;;;;;;11.60;99.90;;;;;;6275388;22;19918;-78
2022/06/04 00:25:30;;;;;;;;;;;11.50;99.90;;;;;;6275348;22;19915;-78
2022/06/04 00:27:56;;;;;;;;;;;11.50;99.90;;;;;;6275534;22;20006;-78
2022/06/04 00:30:21;;;;;;;;;;;11.50;99.90;;;;;;6276773;22;19911;-78
2022/06/04 00:32:47;;;;;;;;;;;11.40;99.90;;;;;;6275667;22;20050;-78
2022/06/04 00:35:13;;;;;;;;;;;11.40;99.90;;;;;;6275200;22;19919;-78
2022/06/04 00:37:38;;;;;;;;;;;11.50;99.90;;;;;;6275273;22;19914;-77
2022/06/04 00:40:04;;;;;;;;;;;11.40;99.90;;;;;;6275251;22;20321;-77
2022/06/04 00:42:30;;;;;;;;;;;11.40;99.90;;;;;;6275534;22;19915;-78
2022/06/04 00:45:14;;;;;;;;;;;11.40;99.90;;;;;;6275208;22;19921;-78
2022/06/04 00:47:41;;;;;;;;;;;11.30;99.90;;;;;;6275352;22;19915;-78
2022/06/04 00:50:08;;;;;;;;;;;11.30;99.90;;;;;;6275239;22;19922;-78
2022/06/04 00:52:34;;;;;;;;;;;11.30;99.90;;;;;;6275395;22;19915;-78
2022/06/04 00:55:00;;;;;;;;;;;11.30;99.90;;;;;;6274904;22;19915;-77
2022/06/04 00:57:37;;;;;;;;;;;11.30;99.90;;;;;;6275120;22;19915;-78
2022/06/04 01:00:02;;;;;;;;;;;11.30;99.90;;;;;;6274935;22;19946;-78
2022/06/04 01:02:39;;;;;;;;;;;11.30;99.90;;;;;;6274888;22;19937;-78
2022/06/04 01:05:12;;;;;;;;;;;11.20;99.90;;;;;;6274856;22;19978;-76
2022/06/04 01:08:02;;;;;;;;;;;11.20;99.90;;;;;;6275567;22;20297;-78
2022/06/04 01:10:51;;;;;;;;;;;11.20;99.90;;;;;;6274503;22;19964;-78
2022/06/04 01:13:19;;;;;;;;;;;11.20;99.90;;;;;;6220447;22;19918;-78
2022/06/04 01:15:50;;;;;;;;;;;11.10;99.90;;;;;;6274260;22;19950;-78
2022/06/04 01:18:16;;;;;;;;;;;11.10;99.90;;;;;;6274479;22;19915;-77
2022/06/04 01:20:54;;;;;;;;;;;11.10;99.90;;;;;;6274154;22;19946;-77
2022/06/04 01:23:39;;;;;;;;;;;11.10;99.90;;;;;;6274196;22;19911;-78
2022/06/04 01:26:20;;;;;;;;;;;11.10;99.90;;;;;;6275234;22;19919;-77
2022/06/04 01:29:12;;;;;;;;;;;11.10;99.90;;;;;;6275326;22;20381;-78
2022/06/04 01:31:41;;;;;;;;;;;11.10;99.90;;;;;;6267917;22;19911;-78
2022/06/04 01:34:07;;;;;;;;;;;11.10;99.90;;;;;;6274129;22;19915;-78
2022/06/04 01:36:39;;;;;;;;;;;11.00;99.90;;;;;;6276606;22;19918;-78
2022/06/04 01:39:11;;;;;;;;;;;11.00;99.90;;;;;;6274537;22;19919;-77
2022/06/04 01:41:54;;;;;;;;;;;11.00;99.90;;;;;;6274630;22;20321;-78
2022/06/04 01:44:22;;;;;;;;;;;11.00;99.90;;;;;;6274538;22;19915;-78
2022/06/04 01:46:51;;;;;;;;;;;11.10;99.90;;;;;;6274549;22;19915;-78
2022/06/04 01:49:35;;;;;;;;;;;11.00;99.90;;;;;;6273939;22;19960;-77
2022/06/04 01:52:06;;;;;;;;;;;11.10;99.90;;;;;;6273277;22;20248;-78
2022/06/04 01:54:37;;;;;;;;;;;11.00;99.90;;;;;;6275258;22;19994;-79
2022/06/04 01:57:10;;;;;;;;;;;11.00;99.90;;;;;;6279333;22;19918;-77
2022/06/04 01:59:47;;;;;;;;;;;11.00;99.90;;;;;;6277038;22;20317;-77
2022/06/04 02:02:20;;;;;;;;;;;11.00;99.90;;;;;;6277422;22;19911;-77
2022/06/04 02:04:48;;;;;;;;;;;11.00;99.90;;;;;;6278364;22;19955;-78
2022/06/04 02:07:29;;;;;;;;;;;11.00;99.90;;;;;;6279878;22;19911;-78
2022/06/04 02:09:58;;;;;;;;;;;10.90;99.90;;;;;;6277150;22;20286;-77
2022/06/04 02:12:23;;;;;;;;;;;11.00;99.90;;;;;;6277267;22;20037;-78
2022/06/04 02:14:49;;;;;;;;;;;10.90;99.90;;;;;;6276364;22;20336;-77
2022/06/04 02:17:17;;;;;;;;;;;10.90;99.90;;;;;;6251846;22;19915;-77
2022/06/04 02:19:44;;;;;;;;;;;10.90;99.90;;;;;;6277025;22;19915;-78
2022/06/04 02:22:10;;;;;;;;;;;10.90;99.90;;;;;;6279008;22;19911;-78
2022/06/04 02:24:35;;;;;;;;;;;10.90;99.90;;;;;;6279693;22;19938;-78
2022/06/04 02:27:01;;;;;;;;;;;10.90;99.90;;;;;;6279807;22;19911;-80
2022/06/04 02:29:27;;;;;;;;;;;10.80;99.90;;;;;;6279757;22;20356;-79
2022/06/04 02:31:58;;;;;;;;;;;10.90;99.90;;;;;;6253639;22;19915;-80
2022/06/04 02:34:30;;;;;;;;;;;10.80;99.90;;;;;;6278371;22;19911;-79
2022/06/04 02:37:06;;;;;;;;;;;10.80;99.90;;;;;;6279946;22;19919;-78
2022/06/04 02:39:41;;;;;;;;;;;10.80;99.90;;;;;;6278949;22;19915;-77
2022/06/04 02:42:20;;;;;;;;;;;10.80;99.90;;;;;;6276489;22;19911;-79
2022/06/04 02:44:46;;;;;;;;;;;10.80;99.90;;;;;;6277578;22;20248;-79
2022/06/04 02:47:18;;;;;;;;;;;10.80;99.90;;;;;;6276035;22;19938;-80
2022/06/04 02:49:51;;;;;;;;;;;10.70;99.90;;;;;;6274314;22;19943;-80
2022/06/04 02:52:18;;;;;;;;;;;10.70;99.90;;;;;;6275442;22;20013;-79
2022/06/04 02:54:53;;;;;;;;;;;10.70;99.90;;;;;;6276693;22;19985;-80
2022/06/04 02:57:18;;;;;;;;;;;10.70;99.90;;;;;;6274296;22;19915;-79
2022/06/04 02:59:45;;;;;;;;;;;10.60;99.90;;;;;;6274279;22;20359;-80
2022/06/04 03:02:13;;;;;;;;;;;10.60;99.90;;;;;;6276438;22;19922;-79
2022/06/04 03:04:49;;;;;;;;;;;10.60;99.90;;;;;;6250328;22;19911;-77
2022/06/04 03:07:16;;;;;;;;;;;10.60;99.90;;;;;;6249817;22;20309;-79
2022/06/04 03:09:44;;;;;;;;;;;10.70;99.90;;;;;;6248746;22;19960;-78
2022/06/04 03:12:11;;;;;;;;;;;10.60;99.90;;;;;;6274680;22;19912;-78
2022/06/04 03:14:37;;;;;;;;;;;10.60;99.90;;;;;;6275242;22;19911;-78
2022/06/04 03:17:05;;;;;;;;;;;10.60;99.90;;;;;;6276515;22;19961;-79
2022/06/04 03:19:30;;;;;;;;;;;10.60;99.90;;;;;;6277192;22;19921;-79
2022/06/04 03:21:56;;;;;;;;;;;10.60;99.90;;;;;;6279016;22;19951;-79
2022/06/04 03:24:21;;;;;;;;;;;10.60;99.90;;;;;;6276824;22;20343;-79
2022/06/04 03:26:47;;;;;;;;;;;10.60;99.90;;;;;;6251067;22;20029;-78
2022/06/04 03:29:12;;;;;;;;;;;10.60;99.90;;;;;;6249835;22;19922;-79
2022/06/04 03:31:38;;;;;;;;;;;10.60;99.90;;;;;;6274740;22;19996;-79
2022/06/04 03:34:04;;;;;;;;;;;10.60;99.90;;;;;;6274876;22;19912;-80
2022/06/04 03:36:30;;;;;;;;;;;10.50;99.90;;;;;;6249685;22;19939;-78
2022/06/04 03:38:56;;;;;;;;;;;10.60;99.90;;;;;;6275052;22;19927;-77
2022/06/04 03:41:21;;;;;;;;;;;10.60;99.90;;;;;;6275596;22;20382;-78
2022/06/04 03:43:51;;;;;;;;;;;10.70;99.90;;;;;;6275794;22;19995;-78
2022/06/04 03:46:21;;;;;;;;;;;10.60;99.90;;;;;;6278211;22;19938;-78
2022/06/04 03:48:47;;;;;;;;;;;10.60;99.90;;;;;;6279336;22;20010;-78
2022/06/04 03:51:12;;;;;;;;;;;10.60;99.90;;;;;;6276559;22;19911;-78
2022/06/04 03:53:38;;;;;;;;;;;10.60;99.90;;;;;;6251608;22;19985;-78
2022/06/04 03:56:04;;;;;;;;;;;10.60;99.90;;;;;;6276728;22;19922;-78
2022/06/04 03:58:30;;;;;;;;;;;10.70;99.90;;;;;;6276587;22;19911;-78
2022/06/04 04:00:56;;;;;;;;;;;10.70;99.90;;;;;;6275737;22;20004;-78
2022/06/04 04:03:21;;;;;;;;;;;10.70;99.90;;;;;;6276261;22;19974;-78
2022/06/04 04:05:51;;;;;;;;;;;10.70;99.90;;;;;;6277473;22;20350;-78
2022/06/04 04:08:18;;;;;;;;;;;10.70;99.90;;;;;;6252467;22;19922;-78
2022/06/04 04:10:44;;;;;;;;;;;10.70;99.90;;;;;;6277586;22;20220;-78
2022/06/04 04:13:11;;;;;;;;;;;10.80;99.90;;;;;;6278067;22;19977;-78
2022/06/04 04:15:37;;;;;;;;;;;10.80;99.90;;;;;;6276677;22;19968;-78
2022/06/04 04:18:03;;;;;;;;;;;10.80;99.90;;;;;;6277127;22;20655;-78
2022/06/04 04:20:30;;;;;;;;;;;10.80;99.90;;;;;;6277177;22;19996;-78
2022/06/04 04:22:57;;;;;;;;;;;10.80;99.90;;;;;;6276692;22;19924;-78
2022/06/04 04:25:23;;;;;;;;;;;10.90;99.90;;;;;;6251501;22;19937;-78
2022/06/04 04:27:49;;;;;;;;;;;10.90;99.90;;;;;;6276679;22;19915;-78
2022/06/04 04:30:16;;;;;;;;;;;10.90;99.90;;;;;;6277457;22;19918;-78
2022/06/04 04:32:42;;;;;;;;;;;10.90;99.90;;;;;;6250978;22;19960;-78
2022/06/04 04:35:11;;;;;;;;;;;11.00;99.90;;;;;;6278080;22;19934;-78
2022/06/04 04:37:37;;;;;;;;;;;11.00;99.90;;;;;;6277238;22;19957;-77
2022/06/04 04:40:03;;;;;;;;;;;11.10;99.90;;;;;;6251563;22;19930;-78
2022/06/04 04:42:29;;;;;;;;;;;11.10;99.90;;;;;;6278985;22;19915;-79
2022/06/04 04:44:54;;;;;;;;;;;11.20;99.90;;;;;;6301193;22;19923;-77
2022/06/04 04:47:20;;;;;;;;;;;11.20;99.90;;;;;;6304081;22;19909;-78
2022/06/04 04:49:45;;;;;;;;;;;11.50;99.90;;;;;;6259085;22;19919;-78
2022/06/04 04:52:11;;;;;;;;;;;11.70;99.90;;;;;;6274160;22;19919;-79
2022/06/04 04:54:36;;;;;;;;;;;11.90;99.90;;;;;;6248363;22;20259;-79
2022/06/04 04:57:02;;;;;;;;;;;12.10;99.90;;;;;;6274486;22;20269;-78
2022/06/04 04:59:27;;;;;;;;;;;12.30;99.90;;;;;;6275451;22;19919;-78
2022/06/04 05:01:53;;;;;;;;;;;12.40;99.90;;;;;;6274346;22;20483;-79
2022/06/04 05:04:19;;;;;;;;;;;12.50;99.90;;;;;;6274274;22;19914;-79
2022/06/04 05:06:44;;;;;;;;;;;12.70;99.90;;;;;;6274028;22;19918;-79
2022/06/04 05:09:10;;;;;;;;;;;13.00;99.90;;;;;;6247872;22;19994;-79
2022/06/04 05:11:36;;;;;;;;;;;13.60;99.90;;;;;;6273139;22;19965;-79
2022/06/04 05:14:02;;;;;;;;;;;14.10;99.90;;;;;;6273173;22;19922;-79
2022/06/04 05:16:35;;;;;;;;;;;14.50;99.90;;;;;;6273836;22;19946;-79
2022/06/04 05:19:01;;;;;;;;;;;14.80;99.90;;;;;;6275392;22;19922;-80
2022/06/04 05:21:34;;;;;;;;;;;15.00;99.90;;;;;;6274783;22;20333;-78
2022/06/04 05:24:00;;;;;;;;;;;15.30;99.90;;;;;;6273666;22;20217;-79
2022/06/04 05:26:25;;;;;;;;;;;15.40;99.90;;;;;;6273663;22;19921;-79
2022/06/04 05:28:51;;;;;;;;;;;15.60;99.90;;;;;;6299077;22;19918;-79
2022/06/04 05:31:17;;;;;;;;;;;15.40;99.90;;;;;;6272983;22;20237;-80
2022/06/04 05:33:43;;;;;;;;;;;14.90;99.90;;;;;;6275175;22;20005;-80
2022/06/04 05:36:08;;;;;;;;;;;14.50;99.90;;;;;;6273703;22;19994;-79
2022/06/04 05:38:37;;;;;;;;;;;14.30;99.90;;;;;;6272922;22;19911;-79
2022/06/04 05:41:07;;;;;;;;;;;14.00;99.90;;;;;;6273337;22;19950;-79
2022/06/04 05:43:33;;;;;;;;;;;13.80;99.90;;;;;;6273286;22;20317;-79
2022/06/04 05:45:59;;;;;;;;;;;13.60;99.90;;;;;;6273355;22;19912;-79
2022/06/04 05:48:25;;;;;;;;;;;13.50;99.90;;;;;;6273544;22;19911;-79
2022/06/04 05:50:52;;;;;;;;;;;13.50;99.90;;;;;;6247467;22;20637;-79
2022/06/04 05:53:17;;;;;;;;;;;13.80;99.90;;;;;;6248129;22;19973;-81
2022/06/04 05:55:43;;;;;;;;;;;14.30;99.90;;;;;;6248255;22;20336;-79
2022/06/04 05:58:08;;;;;;;;;;;14.90;99.90;;;;;;6249249;22;20245;-81
2022/06/04 06:00:34;;;;;;;;;;;15.40;99.90;;;;;;6250423;22;19922;-82
2022/06/04 06:02:59;;;;;;;;;;;15.50;99.90;;;;;;6277230;22;19911;-81
2022/06/04 06:05:25;;;;;;;;;;;15.70;99.90;;;;;;6278446;22;19947;-81
2022/06/04 06:07:50;;;;;;;;;;;15.80;99.90;;;;;;6280586;22;20376;-83
2022/06/04 06:10:16;;;;;;;;;;;15.80;99.90;;;;;;6284351;22;19920;-81
2022/06/04 06:12:42;;;;;;;;;;;15.80;99.90;;;;;;6258081;22;19961;-81
2022/06/04 06:15:07;;;;;;;;;;;15.80;99.90;;;;;;6256845;22;20349;-82
2022/06/04 06:17:33;;;;;;;;;;;16.00;99.90;;;;;;6279654;22;19994;-81
2022/06/04 06:19:59;;;;;;;;;;;16.30;99.90;;;;;;6259466;22;19937;-81
2022/06/04 06:22:24;;;;;;;;;;;16.60;99.90;;;;;;6285215;22;19912;-83
2022/06/04 06:24:50;;;;;;;;;;;16.90;99.90;;;;;;6262173;22;20350;-81
2022/06/04 06:27:15;;;;;;;;;;;17.20;99.90;;;;;;6255567;22;19922;-81
2022/06/04 06:29:41;;;;;;;;;;;17.50;99.90;;;;;;6277040;22;19944;-82
2022/06/04 06:32:06;;;;;;;;;;;17.60;99.90;;;;;;6275987;22;20229;-82
2022/06/04 06:34:32;;;;;;;;;;;17.70;99.90;;;;;;6281064;22;19912;-79
2022/06/04 06:36:57;;;;;;;;;;;17.80;99.90;;;;;;6254492;22;20362;-82
2022/06/04 06:39:23;;;;;;;;;;;17.80;99.90;;;;;;6281788;22;19922;-80
2022/06/04 06:41:48;;;;;;;;;;;18.10;99.90;;;;;;6277978;22;19918;-80
2022/06/04 06:44:14;;;;;;;;;;;18.40;99.90;;;;;;6285168;22;19911;-80
2022/06/04 06:46:41;;;;;;;;;;;18.50;99.90;;;;;;6251975;22;19911;-80
2022/06/04 06:49:12;;;;;;;;;;;18.70;99.90;;;;;;6279748;22;19911;-82
2022/06/04 06:51:39;;;;;;;;;;;18.60;99.90;;;;;;6282667;22;19973;-82
2022/06/04 06:54:05;;;;;;;;;;;18.70;99.90;;;;;;6284525;22;19911;-82
2022/06/04 06:56:32;;;;;;;;;;;18.80;99.90;;;;;;6283100;22;19922;-82
2022/06/04 06:58:59;;;;;;;;;;;19.00;99.90;;;;;;6256882;22;19915;-82
2022/06/04 07:01:27;;;;;;;;;;;19.30;99.90;;;;;;6281613;22;19911;-82
2022/06/04 07:03:55;;;;;;;;;;;19.10;99.90;;;;;;6280164;22;20248;-80
2022/06/04 07:06:29;;;;;;;;;;;18.80;99.90;;;;;;6256385;22;19911;-80
2022/06/04 07:08:54;;;;;;;;;;;18.60;99.90;;;;;;6280638;22;19987;-80
2022/06/04 07:11:20;;;;;;;;;;;18.60;99.90;;;;;;6277406;22;19957;-79
2022/06/04 07:13:45;;;;;;;;;;;18.90;99.90;;;;;;6279630;22;19915;-79
2022/06/04 07:16:11;;;;;;;;;;;19.20;99.90;;;;;;6200618;23;19911;-79
2022/06/04 07:18:38;;;;;;;;;;;19.30;99.90;;;;;;6198499;23;19912;-79
2022/06/04 07:21:04;;;;;;;;;;;19.40;99.90;;;;;;6223101;23;19912;-80
2022/06/04 07:23:33;;;;;;;;;;;19.60;99.90;;;;;;6197724;23;19918;-78
2022/06/04 07:26:00;;;;;;;;;;;19.80;99.90;;;;;;6195585;23;20325;-80
2022/06/04 07:28:25;;;;;;;;;;;19.80;99.90;;;;;;6222061;23;19915;-78
2022/06/04 07:30:51;;;;;;;;;;;19.90;99.90;;;;;;6249374;23;20312;-79
2022/06/04 07:33:16;;;;;;;;;;;20.20;99.90;;;;;;6196884;23;19987;-79
2022/06/04 07:35:49;;;;;;;;;;;20.30;99.90;;;;;;6221097;23;19986;-78
2022/06/04 07:38:15;;;;;;;;;;;20.40;99.90;;;;;;6247908;23;19911;-82
2022/06/04 07:40:40;;;;;;;;;;;20.50;99.90;;;;;;6220412;23;19994;-78
2022/06/04 07:43:06;;;;;;;;;;;20.40;99.90;;;;;;6221046;23;19922;-80
2022/06/04 07:45:33;;;;;;;;;;;20.30;99.90;;;;;;6222583;23;19911;-81
2022/06/04 07:47:58;;;;;;;;;;;20.20;99.90;;;;;;6247544;23;19912;-78
2022/06/04 07:50:24;;;;;;;;;;;20.00;99.90;;;;;;6221545;23;20378;-79
2022/06/04 07:52:49;;;;;;;;;;;20.20;99.90;;;;;;6221671;23;19912;-80
2022/06/04 07:55:15;;;;;;;;;;;20.50;99.90;;;;;;6221131;23;19926;-79
2022/06/04 07:57:41;;;;;;;;;;;20.70;99.30;;;;;;6221610;23;20325;-79
2022/06/04 08:00:07;;;;;;;;;;;21.00;99.90;;;;;;6219896;23;19927;-78
2022/06/04 08:02:33;;;;;;;;;;;21.00;99.50;;;;;;6221229;23;20000;-78
2022/06/04 08:04:58;;;;;;;;;;;20.80;99.10;;;;;;6223922;23;19911;-80
2022/06/04 08:07:24;;;;;;;;;;;20.40;99.80;;;;;;6223579;23;20325;-80
2022/06/04 08:09:50;;;;;;;;;;;20.40;99.90;;;;;;6197784;23;19947;-79
2022/06/04 08:12:17;;;;;;;;;;;20.50;99.90;;;;;;6197583;22;20357;-80
2022/06/04 08:14:43;;;;;;;;;;;20.50;99.90;;;;;;6250425;22;19911;-79
2022/06/04 08:17:09;;;;;;;;;;;20.40;99.90;;;;;;6255546;22;20400;-77
2022/06/04 08:19:34;;;;;;;;;;;20.60;99.90;;;;;;6280443;22;20411;-79
2022/06/04 08:22:00;;;;;;;;;;;20.80;99.90;;;;;;6275844;22;19911;-81
2022/06/04 08:24:26;;;;;;;;;;;21.00;99.50;;;;;;6275444;22;20260;-79
2022/06/04 08:26:56;;;;;;;;;;;20.60;99.90;;;;;;6276165;22;19911;-79
2022/06/04 08:29:22;;;;;;;;;;;20.50;99.90;;;;;;6276502;22;19911;-78
2022/06/04 08:31:47;;;;;;;;;;;20.60;99.90;;;;;;6251545;22;19918;-79
2022/06/04 08:34:13;;;;;;;;;;;21.00;99.90;;;;;;6300298;22;19934;-77
2022/06/04 08:36:41;;;;;;;;;;;21.30;99.90;;;;;;6304222;22;19904;-80
2022/06/04 08:39:07;;;;;;;;;;;21.20;99.50;;;;;;6294888;22;19958;-78
2022/06/04 08:41:39;;;;;;;;;;;20.90;99.90;;;;;;6249705;22;19919;-79
2022/06/04 08:44:13;;;;;;;;;;;20.60;99.90;;;;;;6275604;22;20332;-78
2022/06/04 08:46:38;;;;;;;;;;;20.40;99.90;;;;;;6274895;22;19911;-78
2022/06/04 08:49:11;;;;;;;;;;;20.20;99.90;;;;;;6250183;22;19918;-80
2022/06/04 08:51:37;;;;;;;;;;;20.20;99.90;;;;;;6278089;22;20370;-79
2022/06/04 08:57:32;;;;;;;;;;;20.30;99.90;;;;;;6276893;22;19986;-78
2022/06/04 08:59:38;;;;;;;;;;;20.90;99.90;;;;;;6275168;22;20408;-79
2022/06/04 09:02:04;;;;;;;;;;;21.00;99.90;;;;;;6276527;22;20328;-81
2022/06/04 09:04:42;;;;;;;;;;;21.40;99.90;;;;;;6275274;22;19911;-79
2022/06/04 09:07:11;;;;;;;;;;;21.50;99.50;;;;;;6276521;22;19912;-79
2022/06/04 09:09:40;;;;;;;;;;;21.80;98.90;;;;;;6249756;22;19918;-81
2022/06/04 09:12:12;;;;;;;;;;;21.80;99.60;;;;;;6276234;22;20086;-80
2022/06/04 09:15:11;;;;;;;;;;;21.80;97.90;;;;;;6275755;22;19915;-80
2022/06/04 09:17:40;;;;;;;;;;;21.70;99.90;;;;;;6225793;22;19911;-80
2022/06/04 09:20:26;;;;;;;;;;;21.60;99.90;;;;;;6274555;22;20389;-79
2022/06/04 09:22:56;;;;;;;;;;;21.50;98.90;;;;;;6274808;22;19918;-80
2022/06/04 09:25:22;;;;;;;;;;;21.70;99.80;;;;;;6277122;22;19913;-78
2022/06/04 09:27:56;;;;;;;;;;;21.70;98.40;;;;;;6277078;22;19911;-79
2022/06/04 09:30:27;;;;;;;;;;;21.80;99.30;;;;;;6274846;22;20260;-80
2022/06/04 09:32:52;;;;;;;;;;;21.70;97.50;;;;;;6274926;22;19937;-79
2022/06/04 09:35:22;;;;;;;;;;;21.60;98.20;;;;;;6274737;22;20286;-79
2022/06/04 09:37:49;;;;;;;;;;;21.70;99.30;;;;;;6274432;22;20418;-79
2022/06/04 09:40:19;;;;;;;;;;;21.70;98.90;;;;;;6249006;22;20325;-79
2022/06/04 09:42:45;;;;;;;;;;;21.70;99.30;;;;;;6275091;22;19918;-80
2022/06/04 09:45:17;;;;;;;;;;;21.80;99.90;;;;;;6276745;22;19915;-79
2022/06/04 09:47:44;;;;;;;;;;;21.90;98.50;;;;;;6279698;22;19961;-80
2022/06/04 09:50:20;;;;;;;;;;;21.60;97.20;;;;;;6251008;22;19918;-79
2022/06/04 09:52:55;;;;;;;;;;;21.50;96.60;;;;;;6276360;22;19950;-79
2022/06/04 09:55:22;;;;;;;;;;;21.30;97.10;;;;;;6275893;22;19918;-79
2022/06/04 09:57:56;;;;;;;;;;;21.10;99.90;;;;;;6277669;22;19911;-79
2022/06/04 10:00:24;;;;;;;;;;;21.10;99.90;;;;;;6276896;22;19950;-80
2022/06/04 10:03:00;;;;;;;;;;;20.90;99.90;;;;;;6251383;22;19922;-80
2022/06/04 10:05:28;;;;;;;;;;;20.90;99.90;;;;;;6275231;22;19943;-79
2022/06/04 10:07:54;;;;;;;;;;;21.10;99.90;;;;;;6249561;22;19911;-79
2022/06/04 10:10:23;;;;;;;;;;;21.60;99.90;;;;;;6248985;22;19911;-79
2022/06/04 10:15:33;;;;;;;;;;;22.20;99.90;;;;;;6274775;22;19960;-79
2022/06/04 10:18:01;;;;;;;;;;;22.40;99.90;;;;;;6274589;22;19986;-79
2022/06/04 10:20:27;;;;;;;;;;;22.50;99.40;;;;;;6272881;22;19919;-78
2022/06/04 10:22:54;;;;;;;;;;;22.70;99.90;;;;;;6274977;22;19981;-79
2022/06/04 10:25:32;;;;;;;;;;;22.90;99.90;;;;;;6275310;22;20325;-79
2022/06/04 10:28:30;;;;;;;;;;;23.10;96.60;;;;;;6277073;22;19911;-79
2022/06/04 10:31:03;;;;;;;;;;;23.10;95.80;;;;;;6217016;22;19915;-80
2022/06/04 10:33:32;;;;;;;;;;;23.40;96.40;;;;;;6278576;22;19918;-79
2022/06/04 10:36:04;;;;;;;;;;;23.40;97.40;;;;;;6250909;22;19961;-79
2022/06/04 10:38:48;;;;;;;;;;;23.40;97.60;;;;;;6275582;22;19911;-78
2022/06/04 10:41:19;;;;;;;;;;;23.40;97.40;;;;;;6275931;22;19927;-79
2022/06/04 10:44:00;;;;;;;;;;;23.30;94.30;;;;;;6274680;22;20240;-80
2022/06/04 10:46:29;;;;;;;;;;;23.20;95.10;;;;;;6248384;22;19926;-79
2022/06/04 10:49:01;;;;;;;;;;;22.80;95.60;;;;;;6248097;22;20333;-79
2022/06/04 10:51:32;;;;;;;;;;;22.40;96.50;;;;;;6248791;22;19926;-79
2022/06/04 10:54:17;;;;;;;;;;;22.20;99.40;;;;;;6273285;22;19946;-78
2022/06/04 10:56:48;;;;;;;;;;;22.20;99.90;;;;;;6274839;22;19921;-79
2022/06/04 10:59:22;;;;;;;;;;;22.20;99.90;;;;;;6273753;22;19915;-79
2022/06/04 11:01:50;;;;;;;;;;;22.40;99.90;;;;;;6248649;22;19961;-79
2022/06/04 11:04:25;;;;;;;;;;;22.60;99.90;;;;;;6273380;22;19918;-77
2022/06/04 11:06:57;;;;;;;;;;;22.50;98.60;;;;;;6246658;22;19915;-76
2022/06/04 11:09:34;;;;;;;;;;;22.30;99.60;;;;;;6272664;22;20290;-76
2022/06/04 11:12:10;;;;;;;;;;;22.20;99.90;;;;;;6273050;22;19915;-76
2022/06/04 11:14:39;;;;;;;;;;;22.10;99.90;;;;;;6272755;22;20491;-76
2022/06/04 11:17:15;;;;;;;;;;;22.10;98.80;;;;;;6272887;22;19965;-76
2022/06/04 11:19:52;;;;;;;;;;;22.20;99.90;;;;;;6272707;22;19919;-76
2022/06/04 11:22:25;;;;;;;;;;;22.30;99.80;;;;;;6272636;22;20365;-75
2022/06/04 11:25:18;;;;;;;;;;;22.50;99.90;;;;;;6272947;22;19918;-75
2022/06/04 11:27:59;;;;;;;;;;;22.80;99.90;;;;;;6271073;22;20283;-76
2022/06/04 11:30:30;;;;;;;;;;;22.80;99.90;;;;;;6272488;22;19953;-76
2022/06/04 11:32:56;;;;;;;;;;;22.60;95.70;;;;;;6272908;22;20370;-75
2022/06/04 11:35:40;;;;;;;;;;;22.80;99.80;;;;;;6272622;22;19982;-75
2022/06/04 11:38:15;;;;;;;;;;;22.80;95.30;;;;;;6274545;22;19916;-76
2022/06/04 11:40:55;;;;;;;;;;;22.80;98.60;;;;;;6274242;22;19919;-76
2022/06/04 11:43:23;;;;;;;;;;;22.90;96.90;;;;;;6274537;22;19982;-76
2022/06/04 11:45:57;;;;;;;;;;;22.80;93.50;;;;;;6274703;22;19918;-76
2022/06/04 11:48:26;;;;;;;;;;;22.90;96.20;;;;;;6274609;22;19911;-77
2022/06/04 11:51:01;;;;;;;;;;;23.20;97.00;;;;;;6275673;22;19946;-78
2022/06/04 11:53:33;;;;;;;;;;;23.40;94.80;;;;;;6274342;22;19946;-77
2022/06/04 11:55:59;;;;;;;;;;;23.30;94.40;;;;;;6274395;22;20256;-77
2022/06/04 11:58:33;;;;;;;;;;;23.50;96.40;;;;;;6276030;22;19911;-77
2022/06/04 12:01:01;;;;;;;;;;;23.60;95.60;;;;;;6274253;22;19960;-77
2022/06/04 12:03:33;;;;;;;;;;;23.90;93.70;;;;;;6274193;22;19915;-77
2022/06/04 12:06:02;;;;;;;;;;;24.00;93.20;;;;;;6274491;22;19912;-77
2022/06/04 12:08:30;;;;;;;;;;;24.10;92.50;;;;;;6274371;22;19911;-77
2022/06/04 12:11:19;;;;;;;;;;;24.20;90.70;;;;;;6274110;22;20487;-77
2022/06/04 12:13:54;;;;;;;;;;;24.00;83.70;;;;;;6227870;22;19938;-77
2022/06/04 12:16:34;;;;;;;;;;;23.80;82.70;;;;;;6246268;23;20256;-80
2022/06/04 12:19:03;;;;;;;;;;;23.80;91.60;;;;;;6194802;23;19915;-79
2022/06/04 12:24:27;;;;;;;;;;;23.70;87.10;;;;;;6220452;23;19915;-79
2022/06/04 12:27:03;;;;;;;;;;;23.80;91.20;;;;;;6195507;23;19918;-79
2022/06/04 12:29:29;;;;;;;;;;;24.00;87.40;;;;;;6194991;23;20325;-77
2022/06/04 12:31:57;;;;;;;;;;;23.90;86.80;;;;;;6194808;23;19911;-79
2022/06/04 12:34:32;;;;;;;;;;;23.80;83.80;;;;;;6194003;23;20333;-79
2022/06/04 12:36:57;;;;;;;;;;;23.60;85.00;;;;;;6193891;23;20256;-79
2022/06/04 12:39:26;;;;;;;;;;;23.50;87.90;;;;;;6193975;23;19916;-79
2022/06/04 12:41:56;;;;;;;;;;;23.50;87.70;;;;;;6219217;23;19911;-80
2022/06/04 12:44:27;;;;;;;;;;;23.50;89.20;;;;;;6194025;23;19915;-80
2022/06/04 12:46:53;;;;;;;;;;;23.50;86.40;;;;;;6193640;23;19912;-80
2022/06/04 12:49:21;;;;;;;;;;;23.50;87.50;;;;;;6193920;23;19918;-80
2022/06/04 12:51:49;;;;;;;;;;;23.50;89.70;;;;;;6218801;23;19926;-80
2022/06/04 12:54:28;;;;;;;;;;;23.30;90.10;;;;;;6218813;23;19911;-79
2022/06/04 12:57:02;;;;;;;;;;;23.10;89.30;;;;;;6193473;23;19957;-78
2022/06/04 12:59:40;;;;;;;;;;;22.90;92.80;;;;;;6245633;23;19965;-79
2022/06/04 13:02:24;;;;;;;;;;;23.00;95.20;;;;;;6245961;23;19911;-79
2022/06/04 13:04:49;;;;;;;;;;;22.90;92.40;;;;;;6219171;23;19922;-78
2022/06/04 13:07:22;;;;;;;;;;;22.90;92.80;;;;;;6219346;23;19912;-79
2022/06/04 13:09:59;;;;;;;;;;;22.70;91.10;;;;;;6193604;23;20244;-78
2022/06/04 13:12:24;;;;;;;;;;;22.60;87.30;;;;;;6193796;22;19986;-78
2022/06/04 13:15:09;;;;;;;;;;;22.40;90.70;;;;;;6247947;22;19949;-79
2022/06/04 13:17:40;;;;;;;;;;;22.40;92.70;;;;;;6274346;22;19912;-79
2022/06/04 13:20:25;;;;;;;;;;;22.40;95.60;;;;;;6274946;22;20222;-79
2022/06/04 13:22:52;;;;;;;;;;;22.60;96.20;;;;;;6274618;22;19922;-80
2022/06/04 13:25:21;;;;;;;;;;;22.60;96.00;;;;;;6276866;22;19911;-81
2022/06/04 13:27:54;;;;;;;;;;;22.50;93.60;;;;;;6275729;22;19919;-80
2022/06/04 13:30:21;;;;;;;;;;;22.40;96.00;;;;;;6265427;22;19930;-80
2022/06/04 13:32:47;;;;;;;;;;;22.20;98.10;;;;;;6300698;22;19925;-79
2022/06/04 13:35:23;;;;;;;;;;;22.20;96.80;;;;;;6303097;22;19927;-79
2022/06/04 13:37:51;;;;;;;;;;;22.40;98.40;;;;;;6261894;22;20268;-80
2022/06/04 13:40:19;;;;;;;;;;;22.60;97.20;;;;;;6273526;22;20233;-80
2022/06/04 13:42:47;;;;;;;;;;;22.70;98.30;;;;;;6248365;22;19918;-80
2022/06/04 13:45:18;;;;;;;;;;;22.90;95.10;;;;;;6274500;22;19933;-80
2022/06/04 13:48:04;;;;;;;;;;;22.90;92.50;;;;;;6274318;22;19922;-80
2022/06/04 13:50:31;;;;;;;;;;;22.90;96.10;;;;;;6257499;22;19911;-79
2022/06/04 13:53:13;;;;;;;;;;;23.00;95.70;;;;;;6274039;22;19911;-79
2022/06/04 13:55:40;;;;;;;;;;;23.30;94.70;;;;;;6274161;22;19961;-79
2022/06/04 13:58:11;;;;;;;;;;;23.30;92.30;;;;;;6275692;22;19911;-79
2022/06/04 14:00:38;;;;;;;;;;;23.50;93.20;;;;;;6273996;22;19969;-80
2022/06/04 14:03:09;;;;;;;;;;;23.40;91.90;;;;;;6274347;22;19919;-79
2022/06/04 14:05:47;;;;;;;;;;;23.30;94.70;;;;;;6274198;22;19918;-79
2022/06/04 14:08:16;;;;;;;;;;;23.30;92.30;;;;;;6248641;22;20225;-80
2022/06/04 14:10:43;;;;;;;;;;;23.30;93.60;;;;;;6273740;22;20341;-77
2022/06/04 14:13:32;;;;;;;;;;;23.50;94.40;;;;;;6274314;22;19912;-79
2022/06/04 14:16:09;;;;;;;;;;;23.60;95.70;;;;;;6273184;22;19922;-79
2022/06/04 14:19:00;;;;;;;;;;;23.70;93.00;;;;;;6276091;22;19979;-80
2022/06/04 14:21:31;;;;;;;;;;;23.80;90.20;;;;;;6273940;22;19922;-79
2022/06/04 14:24:00;;;;;;;;;;;23.50;91.10;;;;;;6247935;22;20252;-79
2022/06/04 14:26:35;;;;;;;;;;;23.20;88.50;;;;;;6273964;22;19918;-78
2022/06/04 14:29:10;;;;;;;;;;;22.90;90.70;;;;;;6247620;22;19915;-78
2022/06/04 14:31:54;;;;;;;;;;;22.80;94.30;;;;;;6247530;22;19915;-78
2022/06/04 14:34:20;;;;;;;;;;;22.70;93.80;;;;;;6273378;22;20379;-78
2022/06/04 14:36:47;;;;;;;;;;;22.70;96.80;;;;;;6273553;22;19918;-79
2022/06/04 14:39:13;;;;;;;;;;;22.80;94.90;;;;;;6273471;22;19915;-79
2022/06/04 14:41:50;;;;;;;;;;;22.70;93.60;;;;;;6273694;22;20316;-78
2022/06/04 14:44:15;;;;;;;;;;;22.70;96.80;;;;;;6273980;22;19915;-79